sensor_id;sensor_type;location;lat;lon;timestamp;P1;durP1;ratioP1;P2;durP2;ratioP2
1436;SDS011;712;51.026;13.792;2022-12-05T00:00:31;16.60;;;9.47;;
1436;SDS011;712;51.026;13.792;2022-12-05T00:02:56;17.33;;;9.68;;
1436;SDS011;712;51.026;13.792;2022-12-05T00:05:21;17.53;;;8.67;;
1436;SDS011;712;51.026;13.792;2022-12-05T00:07:47;16.95;;;8.95;;
1436;SDS011;712;51.026;13.792;2022-12-05T00:10:12;17.23;;;9.33;;
1436;SDS011;712;51.026;13.792;2022-12-05T00:12:37;16.40;;;8.98;;
1436;SDS011;712;51.026;13.792;2022-12-05T00:15:03;16.00;;;9.37;;
1436;SDS011;712;51.026;13.792;2022-12-05T00:17:29;14.75;;;8.32;;
1436;SDS011;712;51.026;13.792;2022-12-05T00:22:20;14.93;;;8.32;;
1436;SDS011;712;51.026;13.792;2022-12-05T00:24:45;16.90;;;8.82;;
1436;SDS011;712;51.026;13.792;2022-12-05T00:27:10;16.50;;;9.17;;
1436;SDS011;712;51.026;13.792;2022-12-05T00:29:35;17.07;;;8.43;;
1436;SDS011;712;51.026;13.792;2022-12-05T00:32:01;15.87;;;9.17;;
1436;SDS011;712;51.026;13.792;2022-12-05T00:34:26;16.33;;;8.50;;
1436;SDS011;712;51.026;13.792;2022-12-05T00:36:51;15.20;;;8.00;;
1436;SDS011;712;51.026;13.792;2022-12-05T00:39:16;16.47;;;9.37;;
1436;SDS011;712;51.026;13.792;2022-12-05T00:41:42;15.87;;;8.83;;
1436;SDS011;712;51.026;13.792;2022-12-05T00:44:07;16.63;;;9.23;;
1436;SDS011;712;51.026;13.792;2022-12-05T00:46:34;16.08;;;8.80;;
1436;SDS011;712;51.026;13.792;2022-12-05T00:48:59;17.75;;;9.98;;
1436;SDS011;712;51.026;13.792;2022-12-05T00:51:35;17.73;;;9.60;;
1436;SDS011;712;51.026;13.792;2022-12-05T00:54:02;16.80;;;9.02;;
1436;SDS011;712;51.026;13.792;2022-12-05T00:56:28;16.63;;;9.35;;
1436;SDS011;712;51.026;13.792;2022-12-05T00:58:54;17.80;;;9.65;;
1436;SDS011;712;51.026;13.792;2022-12-05T01:01:21;18.38;;;10.02;;
1436;SDS011;712;51.026;13.792;2022-12-05T01:03:46;18.48;;;9.70;;
1436;SDS011;712;51.026;13.792;2022-12-05T01:06:12;18.20;;;10.23;;
1436;SDS011;712;51.026;13.792;2022-12-05T01:08:38;19.15;;;10.68;;
1436;SDS011;712;51.026;13.792;2022-12-05T01:11:04;18.73;;;9.98;;
1436;SDS011;712;51.026;13.792;2022-12-05T01:13:30;19.67;;;10.38;;
1436;SDS011;712;51.026;13.792;2022-12-05T01:15:55;17.25;;;9.95;;
1436;SDS011;712;51.026;13.792;2022-12-05T01:18:20;17.47;;;9.83;;
1436;SDS011;712;51.026;13.792;2022-12-05T01:20:46;20.17;;;10.82;;
1436;SDS011;712;51.026;13.792;2022-12-05T01:23:12;18.75;;;9.70;;
1436;SDS011;712;51.026;13.792;2022-12-05T01:25:40;19.98;;;10.63;;
1436;SDS011;712;51.026;13.792;2022-12-05T01:28:06;20.05;;;10.75;;
1436;SDS011;712;51.026;13.792;2022-12-05T01:30:32;18.75;;;10.15;;
1436;SDS011;712;51.026;13.792;2022-12-05T01:32:57;19.30;;;10.48;;
1436;SDS011;712;51.026;13.792;2022-12-05T01:35:23;18.30;;;10.23;;
1436;SDS011;712;51.026;13.792;2022-12-05T01:37:48;18.43;;;10.63;;
1436;SDS011;712;51.026;13.792;2022-12-05T01:40:13;18.50;;;10.03;;
1436;SDS011;712;51.026;13.792;2022-12-05T01:42:38;19.40;;;10.80;;
1436;SDS011;712;51.026;13.792;2022-12-05T01:45:13;20.10;;;10.60;;
1436;SDS011;712;51.026;13.792;2022-12-05T01:47:39;19.25;;;10.13;;
1436;SDS011;712;51.026;13.792;2022-12-05T01:50:04;20.43;;;10.33;;
1436;SDS011;712;51.026;13.792;2022-12-05T01:52:30;19.75;;;10.40;;
1436;SDS011;712;51.026;13.792;2022-12-05T01:54:57;19.83;;;10.50;;
1436;SDS011;712;51.026;13.792;2022-12-05T01:57:23;19.13;;;9.63;;
1436;SDS011;712;51.026;13.792;2022-12-05T01:59:50;19.15;;;10.57;;
1436;SDS011;712;51.026;13.792;2022-12-05T02:02:16;18.70;;;10.50;;
1436;SDS011;712;51.026;13.792;2022-12-05T02:04:49;18.17;;;9.48;;
1436;SDS011;712;51.026;13.792;2022-12-05T02:07:15;17.60;;;9.65;;
1436;SDS011;712;51.026;13.792;2022-12-05T02:09:42;18.63;;;10.10;;
1436;SDS011;712;51.026;13.792;2022-12-05T02:12:07;18.77;;;9.90;;
1436;SDS011;712;51.026;13.792;2022-12-05T02:14:47;20.33;;;10.53;;
1436;SDS011;712;51.026;13.792;2022-12-05T02:30:10;19.88;;;10.45;;
1436;SDS011;712;51.026;13.792;2022-12-05T02:35:24;16.13;;;8.80;;
1436;SDS011;712;51.026;13.792;2022-12-05T02:38:03;16.45;;;8.93;;
1436;SDS011;712;51.026;13.792;2022-12-05T02:43:19;17.02;;;8.98;;
1436;SDS011;712;51.026;13.792;2022-12-05T02:45:47;17.40;;;9.18;;
1436;SDS011;712;51.026;13.792;2022-12-05T02:48:13;15.90;;;8.80;;
1436;SDS011;712;51.026;13.792;2022-12-05T02:50:39;17.27;;;9.27;;
1436;SDS011;712;51.026;13.792;2022-12-05T02:53:07;16.30;;;9.05;;
1436;SDS011;712;51.026;13.792;2022-12-05T02:55:34;16.77;;;8.93;;
1436;SDS011;712;51.026;13.792;2022-12-05T02:58:02;16.83;;;9.02;;
1436;SDS011;712;51.026;13.792;2022-12-05T03:00:28;17.08;;;9.02;;
1436;SDS011;712;51.026;13.792;2022-12-05T03:02:55;17.03;;;8.30;;
1436;SDS011;712;51.026;13.792;2022-12-05T03:05:24;16.33;;;8.68;;
1436;SDS011;712;51.026;13.792;2022-12-05T03:07:55;15.23;;;8.63;;
1436;SDS011;712;51.026;13.792;2022-12-05T03:10:22;16.15;;;8.95;;
1436;SDS011;712;51.026;13.792;2022-12-05T03:12:52;15.20;;;8.88;;
1436;SDS011;712;51.026;13.792;2022-12-05T03:15:20;16.48;;;9.00;;
1436;SDS011;712;51.026;13.792;2022-12-05T03:17:49;17.27;;;8.20;;
1436;SDS011;712;51.026;13.792;2022-12-05T03:20:31;15.35;;;8.45;;
1436;SDS011;712;51.026;13.792;2022-12-05T03:22:59;15.95;;;8.90;;
1436;SDS011;712;51.026;13.792;2022-12-05T03:25:29;15.88;;;9.30;;
1436;SDS011;712;51.026;13.792;2022-12-05T03:28:03;15.00;;;8.05;;
1436;SDS011;712;51.026;13.792;2022-12-05T03:30:29;14.10;;;8.15;;
1436;SDS011;712;51.026;13.792;2022-12-05T03:33:02;15.55;;;8.30;;
1436;SDS011;712;51.026;13.792;2022-12-05T03:43:10;15.00;;;7.25;;
1436;SDS011;712;51.026;13.792;2022-12-05T03:45:38;14.50;;;7.80;;
1436;SDS011;712;51.026;13.792;2022-12-05T03:48:08;13.88;;;7.60;;
1436;SDS011;712;51.026;13.792;2022-12-05T03:50:36;15.82;;;7.43;;
1436;SDS011;712;51.026;13.792;2022-12-05T03:53:03;14.32;;;7.93;;
1436;SDS011;712;51.026;13.792;2022-12-05T03:55:30;14.20;;;7.30;;
1436;SDS011;712;51.026;13.792;2022-12-05T03:58:01;13.57;;;7.57;;
1436;SDS011;712;51.026;13.792;2022-12-05T04:00:31;14.15;;;7.80;;
1436;SDS011;712;51.026;13.792;2022-12-05T04:03:03;15.68;;;7.80;;
1436;SDS011;712;51.026;13.792;2022-12-05T04:05:42;13.00;;;7.30;;
1436;SDS011;712;51.026;13.792;2022-12-05T04:10:52;13.18;;;7.28;;
1436;SDS011;712;51.026;13.792;2022-12-05T04:15:47;15.20;;;7.47;;
1436;SDS011;712;51.026;13.792;2022-12-05T04:18:33;13.48;;;6.93;;
1436;SDS011;712;51.026;13.792;2022-12-05T04:20:58;15.35;;;6.88;;
1436;SDS011;712;51.026;13.792;2022-12-05T04:23:43;13.07;;;7.43;;
1436;SDS011;712;51.026;13.792;2022-12-05T04:26:28;13.05;;;7.70;;
1436;SDS011;712;51.026;13.792;2022-12-05T04:29:01;14.15;;;8.00;;
1436;SDS011;712;51.026;13.792;2022-12-05T04:31:31;15.32;;;7.72;;
1436;SDS011;712;51.026;13.792;2022-12-05T04:33:59;13.35;;;7.53;;
1436;SDS011;712;51.026;13.792;2022-12-05T04:36:30;13.60;;;7.55;;
1436;SDS011;712;51.026;13.792;2022-12-05T04:38:57;15.30;;;7.78;;
1436;SDS011;712;51.026;13.792;2022-12-05T04:41:25;12.40;;;7.00;;
1436;SDS011;712;51.026;13.792;2022-12-05T04:43:52;14.13;;;7.70;;
1436;SDS011;712;51.026;13.792;2022-12-05T04:46:18;12.07;;;6.55;;
1436;SDS011;712;51.026;13.792;2022-12-05T04:48:46;12.27;;;7.57;;
1436;SDS011;712;51.026;13.792;2022-12-05T04:51:14;13.30;;;7.50;;
1436;SDS011;712;51.026;13.792;2022-12-05T04:53:40;13.07;;;6.55;;
1436;SDS011;712;51.026;13.792;2022-12-05T04:56:07;13.73;;;7.70;;
1436;SDS011;712;51.026;13.792;2022-12-05T04:58:34;13.00;;;6.70;;
1436;SDS011;712;51.026;13.792;2022-12-05T05:03:26;13.40;;;7.57;;
1436;SDS011;712;51.026;13.792;2022-12-05T05:05:54;12.43;;;6.70;;
1436;SDS011;712;51.026;13.792;2022-12-05T05:08:24;12.68;;;7.35;;
1436;SDS011;712;51.026;13.792;2022-12-05T05:13:33;12.65;;;7.68;;
1436;SDS011;712;51.026;13.792;2022-12-05T05:15:58;13.57;;;7.03;;
1436;SDS011;712;51.026;13.792;2022-12-05T05:18:23;13.27;;;7.67;;
1436;SDS011;712;51.026;13.792;2022-12-05T05:20:49;13.02;;;6.70;;
1436;SDS011;712;51.026;13.792;2022-12-05T05:23:14;12.00;;;6.73;;
1436;SDS011;712;51.026;13.792;2022-12-05T05:25:39;11.67;;;6.27;;
1436;SDS011;712;51.026;13.792;2022-12-05T05:28:04;12.57;;;7.13;;
1436;SDS011;712;51.026;13.792;2022-12-05T05:30:29;12.43;;;7.23;;
1436;SDS011;712;51.026;13.792;2022-12-05T05:32:54;13.93;;;7.30;;
1436;SDS011;712;51.026;13.792;2022-12-05T05:35:20;12.07;;;7.03;;
1436;SDS011;712;51.026;13.792;2022-12-05T05:37:45;13.95;;;7.35;;
1436;SDS011;712;51.026;13.792;2022-12-05T05:40:11;11.70;;;7.18;;
1436;SDS011;712;51.026;13.792;2022-12-05T05:42:43;12.50;;;6.57;;
1436;SDS011;712;51.026;13.792;2022-12-05T05:45:09;12.30;;;7.50;;
1436;SDS011;712;51.026;13.792;2022-12-05T05:47:35;11.77;;;7.22;;
1436;SDS011;712;51.026;13.792;2022-12-05T05:50:00;13.50;;;7.03;;
1436;SDS011;712;51.026;13.792;2022-12-05T05:52:25;12.17;;;6.83;;
1436;SDS011;712;51.026;13.792;2022-12-05T05:54:50;13.07;;;7.30;;
1436;SDS011;712;51.026;13.792;2022-12-05T05:57:15;11.93;;;6.63;;
1436;SDS011;712;51.026;13.792;2022-12-05T05:59:40;11.80;;;6.80;;
1436;SDS011;712;51.026;13.792;2022-12-05T06:02:06;11.70;;;6.43;;
1436;SDS011;712;51.026;13.792;2022-12-05T06:04:33;12.03;;;6.50;;
1436;SDS011;712;51.026;13.792;2022-12-05T06:06:58;12.55;;;7.60;;
1436;SDS011;712;51.026;13.792;2022-12-05T06:09:23;12.93;;;7.27;;
1436;SDS011;712;51.026;13.792;2022-12-05T06:11:48;12.43;;;7.30;;
1436;SDS011;712;51.026;13.792;2022-12-05T06:14:14;12.73;;;7.17;;
1436;SDS011;712;51.026;13.792;2022-12-05T06:16:39;15.10;;;8.60;;
1436;SDS011;712;51.026;13.792;2022-12-05T06:19:04;13.30;;;7.30;;
1436;SDS011;712;51.026;13.792;2022-12-05T06:21:29;14.13;;;8.23;;
1436;SDS011;712;51.026;13.792;2022-12-05T06:23:54;13.53;;;7.20;;
1436;SDS011;712;51.026;13.792;2022-12-05T06:26:20;13.20;;;7.07;;
1436;SDS011;712;51.026;13.792;2022-12-05T06:28:45;14.07;;;7.70;;
1436;SDS011;712;51.026;13.792;2022-12-05T06:31:14;15.27;;;8.53;;
1436;SDS011;712;51.026;13.792;2022-12-05T06:33:40;13.02;;;7.45;;
1436;SDS011;712;51.026;13.792;2022-12-05T06:36:06;15.00;;;7.80;;
1436;SDS011;712;51.026;13.792;2022-12-05T06:38:32;12.43;;;7.22;;
1436;SDS011;712;51.026;13.792;2022-12-05T06:40:57;12.90;;;7.33;;
1436;SDS011;712;51.026;13.792;2022-12-05T06:43:22;13.43;;;7.23;;
1436;SDS011;712;51.026;13.792;2022-12-05T06:45:48;13.65;;;8.00;;
1436;SDS011;712;51.026;13.792;2022-12-05T06:48:13;13.20;;;7.60;;
1436;SDS011;712;51.026;13.792;2022-12-05T06:50:38;15.10;;;6.97;;
1436;SDS011;712;51.026;13.792;2022-12-05T06:53:03;14.32;;;7.45;;
1436;SDS011;712;51.026;13.792;2022-12-05T06:55:28;13.80;;;7.73;;
1436;SDS011;712;51.026;13.792;2022-12-05T06:57:53;13.40;;;6.90;;
1436;SDS011;712;51.026;13.792;2022-12-05T07:00:19;13.60;;;7.47;;
1436;SDS011;712;51.026;13.792;2022-12-05T07:03:03;12.93;;;6.88;;
1436;SDS011;712;51.026;13.792;2022-12-05T07:05:28;11.67;;;6.57;;
1436;SDS011;712;51.026;13.792;2022-12-05T07:07:53;12.57;;;6.70;;
1436;SDS011;712;51.026;13.792;2022-12-05T07:10:18;12.43;;;7.37;;
1436;SDS011;712;51.026;13.792;2022-12-05T07:12:43;14.27;;;7.70;;
1436;SDS011;712;51.026;13.792;2022-12-05T07:15:08;13.00;;;6.90;;
1436;SDS011;712;51.026;13.792;2022-12-05T07:17:35;12.93;;;7.22;;
1436;SDS011;712;51.026;13.792;2022-12-05T07:20:01;13.05;;;7.68;;
1436;SDS011;712;51.026;13.792;2022-12-05T07:22:26;13.37;;;7.33;;
1436;SDS011;712;51.026;13.792;2022-12-05T07:24:51;12.47;;;7.00;;
1436;SDS011;712;51.026;13.792;2022-12-05T07:27:17;14.07;;;7.68;;
1436;SDS011;712;51.026;13.792;2022-12-05T07:29:42;12.57;;;6.82;;
1436;SDS011;712;51.026;13.792;2022-12-05T07:32:07;13.83;;;6.77;;
1436;SDS011;712;51.026;13.792;2022-12-05T07:34:32;14.10;;;7.70;;
1436;SDS011;712;51.026;13.792;2022-12-05T07:36:58;13.53;;;6.60;;
1436;SDS011;712;51.026;13.792;2022-12-05T07:39:23;13.80;;;7.00;;
1436;SDS011;712;51.026;13.792;2022-12-05T07:41:49;12.27;;;6.90;;
1436;SDS011;712;51.026;13.792;2022-12-05T07:44:14;14.67;;;7.50;;
1436;SDS011;712;51.026;13.792;2022-12-05T07:46:39;11.13;;;6.10;;
1436;SDS011;712;51.026;13.792;2022-12-05T07:49:04;12.15;;;6.95;;
1436;SDS011;712;51.026;13.792;2022-12-05T07:51:30;12.68;;;7.20;;
1436;SDS011;712;51.026;13.792;2022-12-05T07:53:57;14.05;;;7.80;;
1436;SDS011;712;51.026;13.792;2022-12-05T07:56:22;11.85;;;6.57;;
1436;SDS011;712;51.026;13.792;2022-12-05T07:58:48;14.40;;;6.40;;
1436;SDS011;712;51.026;13.792;2022-12-05T08:01:14;12.45;;;7.15;;
1436;SDS011;712;51.026;13.792;2022-12-05T08:03:40;13.70;;;7.18;;
1436;SDS011;712;51.026;13.792;2022-12-05T08:06:07;13.82;;;8.05;;
1436;SDS011;712;51.026;13.792;2022-12-05T08:08:32;14.10;;;7.53;;
1436;SDS011;712;51.026;13.792;2022-12-05T08:11:14;12.50;;;6.90;;
1436;SDS011;712;51.026;13.792;2022-12-05T08:13:40;14.52;;;7.20;;
1436;SDS011;712;51.026;13.792;2022-12-05T08:16:06;13.57;;;7.95;;
1436;SDS011;712;51.026;13.792;2022-12-05T08:18:31;12.93;;;7.10;;
1436;SDS011;712;51.026;13.792;2022-12-05T08:21:01;13.50;;;7.27;;
1436;SDS011;712;51.026;13.792;2022-12-05T08:23:27;12.82;;;7.10;;
1436;SDS011;712;51.026;13.792;2022-12-05T08:25:52;14.60;;;7.25;;
1436;SDS011;712;51.026;13.792;2022-12-05T08:28:17;11.40;;;6.47;;
1436;SDS011;712;51.026;13.792;2022-12-05T08:30:42;13.10;;;7.27;;
1436;SDS011;712;51.026;13.792;2022-12-05T08:33:07;14.83;;;7.83;;
1436;SDS011;712;51.026;13.792;2022-12-05T08:35:35;13.07;;;6.93;;
1436;SDS011;712;51.026;13.792;2022-12-05T08:38:00;13.93;;;6.97;;
1436;SDS011;712;51.026;13.792;2022-12-05T08:40:26;12.53;;;6.53;;
1436;SDS011;712;51.026;13.792;2022-12-05T08:42:51;13.47;;;8.10;;
1436;SDS011;712;51.026;13.792;2022-12-05T08:45:16;15.10;;;7.70;;
1436;SDS011;712;51.026;13.792;2022-12-05T08:47:41;14.03;;;8.17;;
1436;SDS011;712;51.026;13.792;2022-12-05T08:50:06;15.27;;;7.57;;
1436;SDS011;712;51.026;13.792;2022-12-05T08:52:32;15.43;;;7.82;;
1436;SDS011;712;51.026;13.792;2022-12-05T08:54:57;16.70;;;7.60;;
1436;SDS011;712;51.026;13.792;2022-12-05T08:57:22;12.63;;;7.60;;
1436;SDS011;712;51.026;13.792;2022-12-05T08:59:47;13.03;;;7.20;;
1436;SDS011;712;51.026;13.792;2022-12-05T09:02:12;13.67;;;7.60;;
1436;SDS011;712;51.026;13.792;2022-12-05T09:04:38;14.30;;;7.73;;
1436;SDS011;712;51.026;13.792;2022-12-05T09:07:03;17.05;;;8.10;;
1436;SDS011;712;51.026;13.792;2022-12-05T09:09:28;13.33;;;7.30;;
1436;SDS011;712;51.026;13.792;2022-12-05T09:11:53;13.10;;;7.22;;
1436;SDS011;712;51.026;13.792;2022-12-05T09:14:18;15.20;;;7.00;;
1436;SDS011;712;51.026;13.792;2022-12-05T09:16:44;14.50;;;7.00;;
1436;SDS011;712;51.026;13.792;2022-12-05T09:19:14;15.20;;;7.53;;
1436;SDS011;712;51.026;13.792;2022-12-05T09:21:39;13.02;;;7.50;;
1436;SDS011;712;51.026;13.792;2022-12-05T09:24:05;13.40;;;7.10;;
1436;SDS011;712;51.026;13.792;2022-12-05T09:26:30;14.70;;;7.30;;
1436;SDS011;712;51.026;13.792;2022-12-05T09:28:55;13.70;;;7.20;;
1436;SDS011;712;51.026;13.792;2022-12-05T09:31:22;13.32;;;7.53;;
1436;SDS011;712;51.026;13.792;2022-12-05T09:33:47;13.45;;;7.70;;
1436;SDS011;712;51.026;13.792;2022-12-05T09:36:15;13.98;;;7.50;;
1436;SDS011;712;51.026;13.792;2022-12-05T09:38:40;12.73;;;7.47;;
1436;SDS011;712;51.026;13.792;2022-12-05T09:46:17;15.90;;;7.47;;
1436;SDS011;712;51.026;13.792;2022-12-05T09:48:44;14.20;;;7.82;;
1436;SDS011;712;51.026;13.792;2022-12-05T09:51:10;13.93;;;7.53;;
1436;SDS011;712;51.026;13.792;2022-12-05T09:53:36;14.90;;;7.90;;
1436;SDS011;712;51.026;13.792;2022-12-05T09:58:43;16.40;;;7.80;;
1436;SDS011;712;51.026;13.792;2022-12-05T10:03:40;14.52;;;7.63;;
1436;SDS011;712;51.026;13.792;2022-12-05T10:06:14;14.52;;;8.07;;
1436;SDS011;712;51.026;13.792;2022-12-05T10:11:27;14.70;;;7.53;;
1436;SDS011;712;51.026;13.792;2022-12-05T10:14:01;15.65;;;7.95;;
1436;SDS011;712;51.026;13.792;2022-12-05T10:16:38;14.18;;;7.60;;
1436;SDS011;712;51.026;13.792;2022-12-05T10:19:10;15.10;;;7.60;;
1436;SDS011;712;51.026;13.792;2022-12-05T10:21:38;18.25;;;8.73;;
1436;SDS011;712;51.026;13.792;2022-12-05T10:24:13;15.02;;;7.70;;
1436;SDS011;712;51.026;13.792;2022-12-05T10:26:44;12.82;;;7.20;;
1436;SDS011;712;51.026;13.792;2022-12-05T10:31:44;13.52;;;6.57;;
1436;SDS011;712;51.026;13.792;2022-12-05T10:36:40;13.23;;;7.55;;
1436;SDS011;712;51.026;13.792;2022-12-05T10:39:08;14.40;;;8.10;;
1436;SDS011;712;51.026;13.792;2022-12-05T10:41:34;13.77;;;7.75;;
1436;SDS011;712;51.026;13.792;2022-12-05T10:43:59;15.27;;;8.07;;
1436;SDS011;712;51.026;13.792;2022-12-05T10:46:24;14.47;;;7.87;;
1436;SDS011;712;51.026;13.792;2022-12-05T10:48:49;14.17;;;7.90;;
1436;SDS011;712;51.026;13.792;2022-12-05T10:51:15;14.50;;;7.70;;
1436;SDS011;712;51.026;13.792;2022-12-05T10:53:42;15.02;;;7.85;;
1436;SDS011;712;51.026;13.792;2022-12-05T10:58:54;15.05;;;8.07;;
1436;SDS011;712;51.026;13.792;2022-12-05T11:01:21;14.20;;;6.63;;
1436;SDS011;712;51.026;13.792;2022-12-05T11:03:46;13.65;;;7.22;;
1436;SDS011;712;51.026;13.792;2022-12-05T11:06:23;13.23;;;6.47;;
1436;SDS011;712;51.026;13.792;2022-12-05T11:08:56;11.90;;;6.43;;
1436;SDS011;712;51.026;13.792;2022-12-05T11:11:22;13.77;;;6.55;;
1436;SDS011;712;51.026;13.792;2022-12-05T11:14:00;13.77;;;6.10;;
1436;SDS011;712;51.026;13.792;2022-12-05T11:16:30;13.13;;;6.10;;
1436;SDS011;712;51.026;13.792;2022-12-05T11:18:56;13.05;;;6.03;;
1436;SDS011;712;51.026;13.792;2022-12-05T11:21:43;11.13;;;5.55;;
1436;SDS011;712;51.026;13.792;2022-12-05T11:26:46;11.05;;;5.45;;
1436;SDS011;712;51.026;13.792;2022-12-05T11:29:27;10.38;;;5.50;;
1436;SDS011;712;51.026;13.792;2022-12-05T11:31:52;9.68;;;5.40;;
1436;SDS011;712;51.026;13.792;2022-12-05T11:34:19;10.40;;;5.43;;
1436;SDS011;712;51.026;13.792;2022-12-05T11:39:39;11.90;;;5.38;;
1436;SDS011;712;51.026;13.792;2022-12-05T11:42:22;12.67;;;5.90;;
1436;SDS011;712;51.026;13.792;2022-12-05T11:47:36;11.80;;;6.03;;
1436;SDS011;712;51.026;13.792;2022-12-05T11:50:11;12.35;;;6.05;;
1436;SDS011;712;51.026;13.792;2022-12-05T11:57:58;12.63;;;6.43;;
1436;SDS011;712;51.026;13.792;2022-12-05T12:03:29;12.60;;;6.68;;
1436;SDS011;712;51.026;13.792;2022-12-05T12:11:11;11.63;;;6.50;;
1436;SDS011;712;51.026;13.792;2022-12-05T12:13:48;16.52;;;7.75;;
1436;SDS011;712;51.026;13.792;2022-12-05T12:16:42;14.40;;;7.13;;
1436;SDS011;712;51.026;13.792;2022-12-05T12:21:54;14.27;;;7.00;;
1436;SDS011;712;51.026;13.792;2022-12-05T12:24:24;12.70;;;6.63;;
1436;SDS011;712;51.026;13.792;2022-12-05T12:27:12;13.05;;;6.20;;
1436;SDS011;712;51.026;13.792;2022-12-05T12:37:33;12.07;;;6.90;;
1436;SDS011;712;51.026;13.792;2022-12-05T12:42:35;14.23;;;6.85;;
1436;SDS011;712;51.026;13.792;2022-12-05T12:47:36;12.43;;;5.82;;
1436;SDS011;712;51.026;13.792;2022-12-05T12:50:23;13.20;;;6.88;;
1436;SDS011;712;51.026;13.792;2022-12-05T12:55:24;15.05;;;7.57;;
1436;SDS011;712;51.026;13.792;2022-12-05T12:58:00;16.45;;;7.63;;
1436;SDS011;712;51.026;13.792;2022-12-05T13:03:19;14.80;;;7.40;;
1436;SDS011;712;51.026;13.792;2022-12-05T13:05:47;14.40;;;7.30;;
1436;SDS011;712;51.026;13.792;2022-12-05T13:08:27;14.73;;;7.13;;
1436;SDS011;712;51.026;13.792;2022-12-05T13:10:53;14.07;;;7.28;;
1436;SDS011;712;51.026;13.792;2022-12-05T13:13:20;13.43;;;6.40;;
1436;SDS011;712;51.026;13.792;2022-12-05T13:15:49;13.40;;;7.10;;
1436;SDS011;712;51.026;13.792;2022-12-05T13:18:22;13.88;;;6.22;;
1436;SDS011;712;51.026;13.792;2022-12-05T13:23:13;14.55;;;7.50;;
1436;SDS011;712;51.026;13.792;2022-12-05T13:25:39;13.50;;;6.68;;
1436;SDS011;712;51.026;13.792;2022-12-05T13:28:06;14.38;;;7.30;;
1436;SDS011;712;51.026;13.792;2022-12-05T13:30:46;13.98;;;6.53;;
1436;SDS011;712;51.026;13.792;2022-12-05T13:33:22;14.32;;;6.63;;
1436;SDS011;712;51.026;13.792;2022-12-05T13:35:49;14.05;;;6.88;;
1436;SDS011;712;51.026;13.792;2022-12-05T13:38:36;12.70;;;6.43;;
1436;SDS011;712;51.026;13.792;2022-12-05T13:41:21;18.80;;;7.15;;
1436;SDS011;712;51.026;13.792;2022-12-05T13:44:05;13.65;;;6.30;;
1436;SDS011;712;51.026;13.792;2022-12-05T13:46:37;13.32;;;6.30;;
1436;SDS011;712;51.026;13.792;2022-12-05T13:49:25;14.50;;;6.60;;
1436;SDS011;712;51.026;13.792;2022-12-05T13:51:53;15.48;;;6.90;;
1436;SDS011;712;51.026;13.792;2022-12-05T13:54:19;11.38;;;6.15;;
1436;SDS011;712;51.026;13.792;2022-12-05T14:02:00;13.43;;;6.55;;
1436;SDS011;712;51.026;13.792;2022-12-05T14:04:47;11.47;;;6.40;;
1436;SDS011;712;51.026;13.792;2022-12-05T14:07:35;11.60;;;5.60;;
1436;SDS011;712;51.026;13.792;2022-12-05T14:09:59;11.75;;;6.68;;
1436;SDS011;712;51.026;13.792;2022-12-05T14:17:22;12.75;;;6.80;;
1436;SDS011;712;51.026;13.792;2022-12-05T14:22:33;13.65;;;6.80;;
1436;SDS011;712;51.026;13.792;2022-12-05T14:25:05;12.75;;;6.63;;
1436;SDS011;712;51.026;13.792;2022-12-05T14:27:48;11.63;;;6.32;;
1436;SDS011;712;51.026;13.792;2022-12-05T14:32:52;9.25;;;4.93;;
1436;SDS011;712;51.026;13.792;2022-12-05T14:35:31;9.57;;;5.15;;
1436;SDS011;712;51.026;13.792;2022-12-05T14:38:04;9.38;;;4.30;;
1436;SDS011;712;51.026;13.792;2022-12-05T14:40:37;11.20;;;4.97;;
1436;SDS011;712;51.026;13.792;2022-12-05T14:43:03;10.57;;;4.53;;
1436;SDS011;712;51.026;13.792;2022-12-05T14:45:32;7.63;;;3.90;;
1436;SDS011;712;51.026;13.792;2022-12-05T14:48:05;9.20;;;4.78;;
1436;SDS011;712;51.026;13.792;2022-12-05T14:50:47;7.78;;;4.28;;
1436;SDS011;712;51.026;13.792;2022-12-05T14:55:55;10.57;;;4.90;;
1436;SDS011;712;51.026;13.792;2022-12-05T15:00:53;10.07;;;4.33;;
1436;SDS011;712;51.026;13.792;2022-12-05T15:03:30;9.88;;;4.85;;
1436;SDS011;712;51.026;13.792;2022-12-05T15:05:56;8.30;;;4.22;;
1436;SDS011;712;51.026;13.792;2022-12-05T15:08:22;8.95;;;4.35;;
1436;SDS011;712;51.026;13.792;2022-12-05T15:10:47;8.57;;;4.32;;
1436;SDS011;712;51.026;13.792;2022-12-05T15:20:44;10.18;;;5.63;;
1436;SDS011;712;51.026;13.792;2022-12-05T15:25:56;10.65;;;5.32;;
1436;SDS011;712;51.026;13.792;2022-12-05T15:28:21;10.50;;;5.57;;
1436;SDS011;712;51.026;13.792;2022-12-05T15:30:53;10.20;;;5.53;;
1436;SDS011;712;51.026;13.792;2022-12-05T15:33:18;11.30;;;5.55;;
1436;SDS011;712;51.026;13.792;2022-12-05T15:35:44;11.90;;;6.07;;
1436;SDS011;712;51.026;13.792;2022-12-05T15:40:37;11.80;;;5.22;;
1436;SDS011;712;51.026;13.792;2022-12-05T15:43:20;11.00;;;5.53;;
1436;SDS011;712;51.026;13.792;2022-12-05T15:45:47;12.52;;;6.57;;
1436;SDS011;712;51.026;13.792;2022-12-05T15:48:13;10.70;;;5.57;;
1436;SDS011;712;51.026;13.792;2022-12-05T15:50:43;11.63;;;5.47;;
1436;SDS011;712;51.026;13.792;2022-12-05T15:55:53;11.48;;;5.75;;
1436;SDS011;712;51.026;13.792;2022-12-05T15:58:26;11.40;;;5.45;;
1436;SDS011;712;51.026;13.792;2022-12-05T16:00:54;11.18;;;5.57;;
1436;SDS011;712;51.026;13.792;2022-12-05T16:05:47;11.45;;;6.45;;
1436;SDS011;712;51.026;13.792;2022-12-05T16:08:13;11.32;;;5.93;;
1436;SDS011;712;51.026;13.792;2022-12-05T16:10:38;12.52;;;6.40;;
1436;SDS011;712;51.026;13.792;2022-12-05T16:13:04;11.13;;;6.20;;
1436;SDS011;712;51.026;13.792;2022-12-05T16:15:30;12.60;;;6.72;;
1436;SDS011;712;51.026;13.792;2022-12-05T16:17:59;12.90;;;7.00;;
1436;SDS011;712;51.026;13.792;2022-12-05T16:20:29;14.45;;;7.68;;
1436;SDS011;712;51.026;13.792;2022-12-05T16:22:57;12.25;;;7.10;;
1436;SDS011;712;51.026;13.792;2022-12-05T16:25:23;11.23;;;5.93;;
1436;SDS011;712;51.026;13.792;2022-12-05T16:28:03;14.45;;;7.75;;
1436;SDS011;712;51.026;13.792;2022-12-05T16:30:37;11.95;;;6.22;;
1436;SDS011;712;51.026;13.792;2022-12-05T16:33:04;13.88;;;6.68;;
1436;SDS011;712;51.026;13.792;2022-12-05T16:35:31;11.95;;;6.25;;
1436;SDS011;712;51.026;13.792;2022-12-05T16:38:04;13.35;;;7.18;;
1436;SDS011;712;51.026;13.792;2022-12-05T16:40:30;12.55;;;6.55;;
1436;SDS011;712;51.026;13.792;2022-12-05T16:43:13;11.65;;;6.70;;
1436;SDS011;712;51.026;13.792;2022-12-05T16:45:41;11.90;;;6.20;;
1436;SDS011;712;51.026;13.792;2022-12-05T16:50:47;16.08;;;7.25;;
1436;SDS011;712;51.026;13.792;2022-12-05T16:53:16;12.27;;;6.15;;
1436;SDS011;712;51.026;13.792;2022-12-05T16:55:42;13.68;;;7.20;;
1436;SDS011;712;51.026;13.792;2022-12-05T16:58:10;14.43;;;6.80;;
1436;SDS011;712;51.026;13.792;2022-12-05T17:00:35;12.50;;;6.18;;
1436;SDS011;712;51.026;13.792;2022-12-05T17:03:00;11.83;;;6.97;;
1436;SDS011;712;51.026;13.792;2022-12-05T17:05:26;11.50;;;6.50;;
1436;SDS011;712;51.026;13.792;2022-12-05T17:07:51;14.33;;;7.40;;
1436;SDS011;712;51.026;13.792;2022-12-05T17:10:16;13.97;;;6.83;;
1436;SDS011;712;51.026;13.792;2022-12-05T17:12:41;14.18;;;6.95;;
1436;SDS011;712;51.026;13.792;2022-12-05T17:15:12;13.38;;;6.82;;
1436;SDS011;712;51.026;13.792;2022-12-05T17:17:38;11.40;;;6.47;;
1436;SDS011;712;51.026;13.792;2022-12-05T17:20:03;12.47;;;6.40;;
1436;SDS011;712;51.026;13.792;2022-12-05T17:22:29;12.18;;;6.80;;
1436;SDS011;712;51.026;13.792;2022-12-05T17:24:54;11.73;;;6.23;;
1436;SDS011;712;51.026;13.792;2022-12-05T17:27:22;10.95;;;5.90;;
1436;SDS011;712;51.026;13.792;2022-12-05T17:29:47;12.57;;;6.77;;
1436;SDS011;712;51.026;13.792;2022-12-05T17:32:12;12.63;;;7.10;;